Aviation Digital Data Service (ADDS)

Output produced by METARs form (0638 UTC 27 March 2017)
found at http://www.aviationweather.gov/adds/metars/
 
KGBD 270520Z 2706/2806 01008KT 4SM BR SCT002 OVC004 
     FM271400 36006KT 6SM BR BKN008 
     FM271600 01006KT P6SM BKN015 
     FM271800 01005KT P6SM SCT025 AMD LTD TO CLD VIS AND WIND
       
KGCC 270520Z 2706/2806 16007KT P6SM SCT200 
     FM271000 16007KT P6SM FEW005 SCT200 
     FM271700 13007KT P6SM SCT150
       
KGCK 270520Z 2706/2806 01009KT P6SM SCT008 SCT014 OVC030 
     FM271100 32007KT P6SM SCT008 
     FM271200 32007KT 1/2SM FG SCT008 
     FM271400 32006KT 3/4SM BR SCT008 
     FM271600 31005KT 6SM BR FEW100 
     FM280000 14009KT P6SM SCT200
       
KGCN 270540Z 2706/2806 VRB03KT P6SM SCT120 BKN250 
     FM271900 22017G30KT P6SM -SHRA BKN060 BKN100 
     TEMPO 2721/2801 -TSRA BKN045CB 
     FM280300 29010KT 4SM SHRA BR BKN025
       
KGDV 270520Z 2706/2806 07007KT P6SM FEW090 
     FM271200 12004KT P6SM BKN110 
     FM280000 13010KT P6SM SCT090
       
KGEG 270523Z 2706/2806 12005KT 6SM -RA BR OVC025 
     FM270800 19007KT 6SM -RA BR OVC013 
     FM271200 21009KT 6SM -RA BR BKN010 
     FM271500 21010G15KT P6SM VCSH SCT010 BKN021 
     FM272100 21011G16KT P6SM VCSH BKN030 BKN080 
     FM280300 24007KT P6SM BKN050 BKN120 BKN200
       
TAF KGFA 270304Z 2703/2809 18009KT 9999 SCT085 SCT120 QNH2979INS 
     BECMG 2706/2707 10009KT 9999 SCT050 QNH2975INS 
     BECMG 2715/2716 27012G18KT 9999 SCT040 BKN070 610703 QNH2980INS 
     BECMG 2802/2803 27015G20KT 9999 VCSH SCT020 BKN050 BKN080 QNH2990INS TX13/2723Z TN01/2712Z
       
KGFK 270545Z 2706/2806 00000KT P6SM OVC009 
     TEMPO 2707/2709 1/2SM FG VV004 
     FM270900 00000KT 1/2SM FG BKN010 
     FM271300 VRB03KT P6SM OVC008 
     FM271800 VRB03KT P6SM OVC035
       
KGFL 270520Z 2706/2806 00000KT 6SM BR VCSH OVC025 
     TEMPO 2708/2710 5SM -RA BR OVC020 
     FM271000 VRB03KT 2SM -RA BR OVC015 
     FM271800 VRB03KT P6SM VCSH OVC010 
     PROB30 2718/2723 4SM -RA OVC006 
     FM280000 VRB03KT 5SM BR VCSH OVC005
       
KGGG 270522Z 2706/2806 18014G22KT P6SM BKN100 
     FM270800 18012KT P6SM OVC015 
     FM272000 26007KT P6SM OVC035 
     FM280100 VRB03KT P6SM BKN050
       
KGGW 270520Z 2706/2806 08007KT P6SM FEW110 
     FM271800 12011KT P6SM BKN050
       
KGJT 270539Z 2706/2806 03007KT P6SM FEW250 
     FM270900 11007KT P6SM SCT200 
     FM271600 14010KT P6SM BKN150 
     FM271900 19009KT P6SM BKN080 
     FM272200 22008KT P6SM VCSH BKN060 
     FM280300 06006KT P6SM VCSH OVC060
       
KGKY 270537Z 2706/2812 18018KT P6SM SCT080 BKN300 
     FM270800 18016KT P6SM SCT015 
     FM270900 31010KT P6SM SCT020 
     FM271100 33010KT P6SM SCT020 
     FM272100 01004KT P6SM FEW250
       
KGLD 270539Z 2706/2806 23008KT 1/2SM FG VV002 
     FM270700 25006KT 5SM BR SCT002 
     FM270800 27006KT P6SM FEW150 
     TEMPO 2712/2714 5SM BR 
     FM271700 18004KT P6SM FEW250 
     FM272100 16008KT P6SM FEW200
       
KGLH 270545Z 2706/2806 15008KT P6SM SCT080 BKN100 
     FM270700 18010KT P6SM BKN035 
     FM271100 18011G18KT P6SM BKN025 
     FM271300 18013G23KT P6SM BKN015 
     FM271500 20012KT P6SM OVC025 
     FM271900 21016G23KT P6SM -SHRA VCTS OVC035CB 
     FM272200 21010KT P6SM VCTS BKN050CB
       
KGLS 270520Z 2706/2806 16011KT P6SM BKN024 
     FM271500 17012KT P6SM SCT023
       
KGMU 270539Z 2706/2806 17004KT P6SM VCSH BKN060 
     FM270800 17004KT 6SM BR VCSH BKN010 
     TEMPO 2709/2713 3SM BR OVC007 
     FM271400 21006KT P6SM BKN025 
     FM271800 22008KT P6SM VCSH BKN040 
     PROB30 2719/2724 4SM -TSRA OVC025CB 
     FM280000 20004KT P6SM VCSH BKN040
       
KGNV 270535Z 2706/2806 00000KT P6SM SKC 
     TEMPO 2709/2712 3SM BR 
     FM271400 15005KT P6SM FEW040 
     FM271700 15005KT P6SM VCSH SCT040 SCT250 
     FM280000 18003KT P6SM SCT050
       
KGON 270541Z 2706/2806 09012KT 6SM BR SCT008 OVC015 
     FM270700 08008KT 2SM -DZ BR OVC008 
     FM271300 11007KT 1SM -RADZ BR OVC002 
     FM271600 13007KT 2SM -RA BR OVC004 
     FM271900 15006KT 3SM -RA BR OVC005 
     FM280000 VRB03KT 2SM BR OVC003 
     FM280100 00000KT 1/2SM FG OVC002
       
KGPT 270522Z 2706/2806 15009KT P6SM BKN008 OVC025 
     FM271500 17009KT P6SM BKN025 
     PROB30 2715/2718 4SM -SHRA OVC015 
     FM271800 17011KT P6SM BKN035 
     PROB30 2718/2722 4SM -SHRA OVC025
       
KGRB 270520Z 2706/2806 34003KT 6SM BR OVC005 
     TEMPO 2706/2708 3SM -DZ BR SCT005 OVC021 
     FM271200 35003KT 5SM BR OVC006 
     FM271700 02005KT 6SM BR OVC010 
     FM272300 03005KT P6SM OVC015
       
TAF KGRF 270502Z 2705/2811 20009KT 9999 VCSH BKN015 OVC030 610407 QNH2979INS 
     BECMG 2706/2707 20009KT 9000 -SHRA BKN020 OVC030 610307 QNH2985INS 
     BECMG 2715/2716 21012G18KT 9000 -SHRA OVC030 610307 QNH3002INS 
     BECMG 2801/2802 21009KT 9999 NSW BKN030 QNH3003INS 
     BECMG 2808/2809 21009KT 9000 -RA OVC015 620307 QNH3001INS TX10/2723Z TN06/2714Z
       
KGRI 270627Z 2706/2806 VRB03KT 4SM BR OVC005 
     TEMPO 2708/2712 3SM BR OVC003 
     FM271400 01004KT 6SM BR BKN008 
     FM271800 VRB03KT P6SM SCT030 
     FM272300 07004KT P6SM FEW200
       
TAF AMD KGRK 270628Z 2706/2806 11009KT 9999 SCT009 SCT035 QNH2971INS 
     TEMPO 2706/2707 18015G25KT 4800 TSRA OVC030CB 
     BECMG 2706/2707 17012KT 9999 SCT009 SCT035 QNH2980INS 
     BECMG 2707/2708 19009KT 8000 BR BKN014 QNH2983INS 
     BECMG 2714/2715 24009KT 9999 NSW SCT020 QNH2981INS 
     BECMG 2805/2806 11009KT 9999 BKN015 QNH2984INS TX29/2721Z TN16/2712Z
       
KGRR 270543Z 2706/2806 21010KT 6SM BR OVC009 
     FM270900 24005KT 1 1/2SM BR OVC004 
     FM271800 27005KT P6SM OVC025 
     FM280000 VRB05KT 4SM BR OVC025
       
TAF KGSB 270400Z 2704/2810 15009KT 9999 SCT050 QNH3008INS 
     BECMG 2714/2715 19012KT 9999 BKN035 QNH2999INS 
     BECMG 2720/2721 19012KT 8000 -SHRA OVC040 QNH2997INS 
     BECMG 2723/2724 16009KT 9999 NSW BKN030 QNH2996INS TX25/2720Z TN14/2711Z
       
KGSO 270536Z 2706/2806 18009KT P6SM BKN100 
     FM271200 21006KT P6SM BKN025 
     TEMPO 2712/2715 BKN018 
     FM272000 23010G16KT P6SM BKN035 
     FM280000 20005KT P6SM OVC250
       
KGSP 270539Z 2706/2806 17004KT P6SM VCSH BKN060 
     FM270800 17004KT 6SM BR VCSH BKN010 
     TEMPO 2709/2713 3SM BR OVC007 
     FM271400 21006KT P6SM BKN025 
     FM271800 22008KT P6SM VCSH BKN040 
     PROB30 2719/2724 4SM -TSRA OVC025CB 
     FM280000 20004KT P6SM VCSH BKN040
       
TAF KGTB 270100Z 2701/2807 15010G15KT 9999 BKN015 OVC035 WS020/19044KT QNH3004INS 
     BECMG 2704/2705 16012G18KT 8000 -SHRA BKN015 OVC025 610709 510152 QNH2991INS 
     BECMG 2712/2713 16009KT 9000 -SHRA OVC012 610709 510102 QNH2989INS 
     BECMG 2715/2716 19012KT 9999 NSW BKN010 OVC020 620705 510102 QNH2986INS 
     BECMG 2723/2724 17009KT 9000 -RA OVC010 620607 QNH2985INS 
     BECMG 2803/2804 19006KT 3200 BR OVC007 620702 QNH2984INS TX08/2722Z TN01/2701Z
       
KGTF 270520Z 2706/2806 12007KT P6SM VCSH SCT045 OVC070 
     FM271100 21008KT P6SM SCT080 BKN150 
     FM272000 30011G20KT P6SM VCSH SCT050 BKN080
       
KGTR 270545Z 2706/2806 19008KT P6SM FEW100 
     FM270900 17007KT P6SM BKN015 
     FM271100 17008KT 4SM BR BKN008 
     FM271400 18010G19KT P6SM BKN015 
     FM271600 19013G19KT P6SM BKN025 
     FM271900 20013G20KT P6SM VCSH SCT040 
     FM272200 20011KT P6SM TSRA BKN050CB
       
KGUP 270533Z 2706/2806 VRB06KT P6SM SCT250 
     FM271600 22012G18KT P6SM SCT090 SCT200 
     FM272100 23015G25KT P6SM VCSH SCT050 BKN090
       
TAF AMD KGUS 270501Z 2705/2809 24009KT 9999 BKN006 OVC012 QNH2990INS 
     BECMG 2714/2715 VRB06KT 9999 SCT015 BKN025 QNH2985INS 
     BECMG 2801/2802 05009KT 6000 -SHRA OVC007 QNH2986INS TX16/2721Z TN08/2712Z
       
KGWO 270545Z 2706/2806 18005KT P6SM FEW060 SCT100 
     FM271100 18009KT P6SM BKN025 
     FM271300 18010KT P6SM BKN015 
     FM271600 19014G20KT P6SM OVC025 
     FM271800 20015G22KT P6SM VCSH BKN035 
     FM272100 20011KT P6SM TSRA BKN050CB
       
KGYY 270539Z 2706/2806 24006KT 6SM BR OVC008 
     FM270800 25006KT 3SM BR OVC005 
     FM271400 VRB04KT 4SM BR OVC007 
     FM271700 04008KT P6SM SCT008 OVC010 
     TEMPO 2720/2724 4SM -SHRA BR OVC007 
     FM280100 03011KT P6SM VCSH FEW007 BKN015